Time;durP1;ratioP1;P1;durP2;ratioP2;P2;SDS_P1;SDS_P2;PMS_P1;PMS_P2;Temp;Humidity;BMP_temperature;BMP_pressure;BME280_temperature;BME280_humidity;BME280_pressure;Samples;Min_cycle;Max_cycle;Signal;HPM_P1;HPM_P2
2023/05/20 00:01:35;;;;;;;10.53;3.37;;;;;;;16.52;48.88;102276.22;5201914;28;20042;-71
2023/05/20 00:04:06;;;;;;;7.30;3.60;;;;;;;16.62;48.66;102272.97;5209671;28;20058;-69
2023/05/20 00:06:37;;;;;;;8.53;2.90;;;;;;;16.39;49.85;102283.22;5187118;28;20030;-71
2023/05/20 00:09:09;;;;;;;7.13;2.93;;;;;;;16.21;50.51;102264.88;5195154;28;20876;-70
2023/05/20 00:11:41;;;;;;;5.67;3.10;;;;;;;16.23;51.09;102256.88;5194764;28;20042;-70
2023/05/20 00:14:12;;;;;;;10.20;3.10;;;;;;;16.17;50.94;102271.28;5191059;28;20027;-70
2023/05/20 00:16:43;;;;;;;8.00;2.97;;;;;;;16.25;50.72;102271.66;5176491;28;20075;-70
2023/05/20 00:19:15;;;;;;;7.80;3.07;;;;;;;16.37;50.70;102266.59;5194507;28;20034;-69
2023/05/20 00:21:46;;;;;;;9.37;3.30;;;;;;;15.88;53.02;102256.25;5194118;28;20455;-69
2023/05/20 00:24:17;;;;;;;10.80;3.60;;;;;;;16.03;52.32;102277.41;5195141;28;20395;-71
2023/05/20 00:26:49;;;;;;;7.53;3.50;;;;;;;16.18;51.64;102271.19;5190008;28;20104;-70
2023/05/20 00:29:21;;;;;;;6.50;2.90;;;;;;;15.79;53.94;102276.13;5190439;28;20023;-69
2023/05/20 00:31:52;;;;;;;12.03;3.47;;;;;;;16.01;53.23;102274.88;5191029;28;20483;-70
2023/05/20 00:34:24;;;;;;;8.17;2.73;;;;;;;15.97;53.59;102268.88;5191354;28;20140;-70
2023/05/20 00:36:55;;;;;;;10.77;4.70;;;;;;;15.96;53.66;102264.56;5189958;28;20133;-69
2023/05/20 00:39:26;;;;;;;15.23;3.07;;;;;;;15.64;55.06;102264.66;5188553;28;20032;-69
2023/05/20 00:42:01;;;;;;;9.83;3.07;;;;;;;15.63;55.18;102254.19;5190966;28;20018;-69
2023/05/20 00:44:32;;;;;;;;;;;;;;;16.56;50.28;102271.56;5173043;28;20090;-70
2023/05/20 00:47:04;;;;;;;13.57;3.87;;;;;;;15.81;54.59;102257.56;5190381;28;19918;-70
2023/05/20 00:49:35;;;;;;;10.37;3.13;;;;;;;15.69;55.77;102269.69;5191030;28;20113;-70
2023/05/20 00:52:07;;;;;;;6.83;3.00;;;;;;;15.63;56.08;102265.63;5172782;28;20689;-70
2023/05/20 00:54:40;;;;;;;8.93;3.00;;;;;;;15.62;56.28;102261.28;5190737;28;20041;-70
2023/05/20 00:57:12;;;;;;;8.50;3.57;;;;;;;15.47;57.18;102258.59;5189437;28;20039;-70
2023/05/20 00:59:43;;;;;;;8.43;3.70;;;;;;;15.44;57.76;102260.56;5191035;28;20387;-69
2023/05/20 01:02:15;;;;;;;7.83;3.20;;;;;;;15.64;56.16;102259.38;5211792;28;20034;-69
2023/05/20 01:04:47;;;;;;;8.23;3.90;;;;;;;15.43;57.23;102259.72;5186811;28;20117;-71
2023/05/20 01:07:18;;;;;;;9.80;3.30;;;;;;;15.53;56.84;102253.91;5191230;28;20573;-69
2023/05/20 01:09:51;;;;;;;9.63;3.50;;;;;;;15.47;57.78;102245.41;5190173;28;20560;-69
2023/05/20 01:12:28;;;;;;;12.77;4.07;;;;;;;15.51;57.27;102258.41;5203406;23;20066;-80
2023/05/20 01:15:14;;;;;;;8.43;3.30;;;;;;;15.63;55.80;102223.38;5138135;28;20510;-80
2023/05/20 01:17:56;;;;;;;11.70;3.80;;;;;;;15.43;58.01;102257.06;5146729;28;20059;-81
2023/05/20 01:20:34;;;;;;;7.23;3.43;;;;;;;15.18;58.12;102208.38;5167288;28;20033;-82
2023/05/20 01:23:40;;;;;;;7.90;3.53;;;;;;;15.77;55.86;102246.31;5155944;28;20058;-82
2023/05/20 01:26:15;;;;;;;10.20;3.37;;;;;;;15.28;57.54;102213.94;5137623;29;20038;-82
2023/05/20 01:28:58;;;;;;;10.07;4.27;;;;;;;15.29;57.31;102207.72;5137002;29;20023;-82
2023/05/20 01:31:36;;;;;;;9.40;3.13;;;;;;;15.47;58.05;102239.25;5237318;28;20031;-82
2023/05/20 01:34:11;;;;;;;9.90;3.40;;;;;;;15.00;58.84;102216.41;5220217;28;20042;-82
2023/05/20 01:36:44;;;;;;;8.97;3.33;;;;;;;15.11;58.81;102228.94;5202955;28;20027;-82
2023/05/20 01:39:16;;;;;;;7.00;3.47;;;;;;;14.95;59.10;102209.66;5154120;28;20051;-82
2023/05/20 01:41:49;;;;;;;10.50;3.43;;;;;;;15.06;59.36;102222.25;5161132;28;20106;-81
2023/05/20 01:44:21;;;;;;;10.37;4.50;;;;;;;14.93;60.22;102225.59;5160166;28;20035;-81
2023/05/20 01:46:53;;;;;;;8.83;4.10;;;;;;;14.70;60.14;102180.22;5152387;29;20027;-81
2023/05/20 01:49:24;;;;;;;10.53;4.30;;;;;;;14.96;59.77;102214.84;5157073;28;20027;-81
2023/05/20 01:51:56;;;;;;;11.30;4.60;;;;;;;14.74;61.18;102216.03;5153519;28;20485;-81
2023/05/20 01:54:28;;;;;;;12.43;4.10;;;;;;;14.81;60.51;102207.81;5148178;28;20084;-81
2023/05/20 01:57:00;;;;;;;9.73;4.20;;;;;;;15.03;60.73;102238.28;5171009;28;20058;-81
2023/05/20 01:59:31;;;;;;;9.17;3.43;;;;;;;14.67;60.39;102176.91;5155180;28;20030;-81
2023/05/20 02:02:03;;;;;;;10.10;3.87;;;;;;;14.70;61.00;102206.59;5155468;28;20042;-81
2023/05/20 02:04:37;;;;;;;9.63;3.90;;;;;;;14.89;61.15;102218.78;5172419;28;20077;-82
2023/05/20 02:07:09;;;;;;;8.40;4.03;;;;;;;14.65;61.53;102195.47;5173496;28;20077;-81
2023/05/20 02:09:41;;;;;;;7.43;4.33;;;;;;;14.80;61.23;102209.56;5166138;28;20031;-81
2023/05/20 02:12:15;;;;;;;12.10;4.83;;;;;;;14.69;61.58;102215.47;5134751;29;20015;-81
2023/05/20 02:14:48;;;;;;;9.53;4.17;;;;;;;14.55;63.78;102228.53;5135599;29;20043;-82
2023/05/20 02:17:19;;;;;;;9.77;4.73;;;;;;;14.34;63.19;102190.09;5135379;28;20042;-81
2023/05/20 02:19:53;;;;;;;8.70;3.57;;;;;;;14.63;61.78;102207.88;5135785;28;20499;-82
2023/05/20 02:22:27;;;;;;;8.27;3.83;;;;;;;14.33;63.08;102180.47;5146296;28;20019;-82
2023/05/20 02:24:58;;;;;;;12.10;4.28;;;;;;;14.54;63.34;102225.03;5172842;28;20027;-80
2023/05/20 02:27:30;;;;;;;17.37;5.03;;;;;;;14.36;63.40;102184.75;5141658;28;20399;-80
2023/05/20 02:30:04;;;;;;;10.70;4.33;;;;;;;14.26;63.79;102190.50;5151029;28;20578;-81
2023/05/20 02:32:41;;;;;;;10.18;3.67;;;;;;;14.47;64.11;102198.16;5152295;28;20517;-82
2023/05/20 02:35:17;;;;;;;10.63;4.53;;;;;;;14.28;64.57;102172.81;5154151;28;20024;-82
2023/05/20 02:37:48;;;;;;;10.93;4.20;;;;;;;14.35;64.42;102194.41;5154065;28;20027;-82
2023/05/20 02:40:26;;;;;;;9.03;3.60;;;;;;;14.55;63.51;102226.75;5153591;28;20685;-82
2023/05/20 02:42:59;;;;;;;10.67;4.23;;;;;;;14.55;63.59;102218.00;5152781;28;20038;-82
2023/05/20 02:45:31;;;;;;;8.65;4.20;;;;;;;14.38;64.52;102190.78;5136510;28;20360;-82
2023/05/20 02:48:02;;;;;;;10.10;4.87;;;;;;;14.02;65.95;102177.72;5152935;28;20031;-82
2023/05/20 02:50:38;;;;;;;12.63;4.10;;;;;;;14.11;65.70;102171.13;5151839;28;20471;-81
2023/05/20 02:53:09;;;;;;;12.13;4.80;;;;;;;14.01;65.69;102167.28;5152991;28;20031;-80
2023/05/20 02:55:41;;;;;;;6.87;4.30;;;;;;;14.14;66.70;102189.38;5151738;28;20097;-80
2023/05/20 02:58:13;;;;;;;9.33;4.60;;;;;;;14.01;66.62;102181.31;5151374;28;20065;-82
2023/05/20 03:00:45;;;;;;;10.13;4.87;;;;;;;13.88;66.90;102165.28;5149884;28;20421;-81
2023/05/20 03:03:16;;;;;;;7.80;4.00;;;;;;;13.99;66.22;102177.88;5134758;28;20024;-81
2023/05/20 03:05:48;;;;;;;8.63;3.93;;;;;;;14.32;65.36;102199.00;5145879;28;20952;-81
2023/05/20 03:08:21;;;;;;;8.17;4.20;;;;;;;13.91;66.96;102164.28;5154823;28;20102;-81
2023/05/20 03:10:53;;;;;;;7.50;4.07;;;;;;;13.97;68.58;102195.56;5172942;28;20418;-82
2023/05/20 03:13:26;;;;;;;8.73;4.20;;;;;;;14.05;68.06;102207.47;5171560;28;20058;-81
2023/05/20 03:16:00;;;;;;;11.43;4.18;;;;;;;14.14;66.69;102189.38;5164662;28;20471;-81
2023/05/20 03:18:34;;;;;;;12.88;5.03;;;;;;;13.77;69.48;102194.81;5152299;28;20034;-82
2023/05/20 03:21:05;;;;;;;11.23;4.55;;;;;;;13.95;67.92;102181.59;5135539;28;20069;-81
2023/05/20 03:23:40;;;;;;;7.77;4.03;;;;;;;13.79;68.50;102160.50;5135648;28;20024;-82
2023/05/20 03:26:11;;;;;;;12.32;4.25;;;;;;;13.85;68.74;102180.41;5135637;28;20043;-81
2023/05/20 03:28:45;;;;;;;11.63;4.80;;;;;;;13.92;68.77;102176.50;5151825;28;20502;-82
2023/05/20 03:31:16;;;;;;;9.37;4.40;;;;;;;13.65;70.48;102184.91;5151864;28;20032;-81
2023/05/20 03:33:48;;;;;;;12.27;4.43;;;;;;;13.72;70.60;102196.00;5152263;29;20031;-81
2023/05/20 03:36:19;;;;;;;11.43;4.87;;;;;;;13.74;69.20;102167.78;5135431;28;20031;-81
2023/05/20 03:38:51;;;;;;;12.13;4.20;;;;;;;13.71;70.95;102205.66;5134698;29;20042;-81
2023/05/20 03:41:22;;;;;;;10.67;4.50;;;;;;;13.74;70.21;102196.75;5234517;28;20030;-80
2023/05/20 03:43:56;;;;;;;8.90;4.10;;;;;;;13.62;70.44;102171.91;5149898;29;20071;-82
2023/05/20 03:46:29;;;;;;;10.68;4.45;;;;;;;13.59;70.63;102175.56;5152230;29;20055;-81
2023/05/20 03:49:05;;;;;;;8.32;4.07;;;;;;;13.77;70.40;102180.81;5134167;28;20027;-82
2023/05/20 03:51:39;;;;;;;8.63;3.83;;;;;;;13.76;71.05;102193.13;5134036;29;20118;-82
2023/05/20 03:54:16;;;;;;;8.50;4.28;;;;;;;13.74;70.89;102189.69;5151544;29;20046;-81
2023/05/20 03:56:48;;;;;;;10.80;5.13;;;;;;;13.59;71.52;102193.13;5233720;28;20027;-81
2023/05/20 03:59:21;;;;;;;13.93;5.10;;;;;;;13.45;71.62;102167.47;5150831;28;20062;-81
2023/05/20 04:01:52;;;;;;;14.27;4.77;;;;;;;13.45;73.00;102173.59;5150297;28;20046;-81
2023/05/20 04:04:27;;;;;;;7.80;4.83;;;;;;;13.66;71.15;102170.81;5156757;28;20031;-81
2023/05/20 04:07:00;;;;;;;10.90;4.37;;;;;;;13.10;74.49;102144.66;5158364;28;20097;-81
2023/05/20 04:09:32;;;;;;;9.33;4.10;;;;;;;13.26;74.76;102164.03;5154643;28;20467;-81
2023/05/20 04:12:04;;;;;;;10.57;4.90;;;;;;;13.49;73.48;102180.41;5154099;28;20352;-82
2023/05/20 04:14:37;;;;;;;9.37;4.27;;;;;;;13.33;75.17;102196.13;5152970;28;20105;-82
2023/05/20 04:17:11;;;;;;;11.00;4.87;;;;;;;13.22;75.36;102188.75;5167586;28;20030;-82
2023/05/20 04:19:45;;;;;;;8.00;4.32;;;;;;;13.46;74.13;102175.28;5174337;28;20498;-82
2023/05/20 04:22:19;;;;;;;12.55;5.25;;;;;;;13.21;75.18;102175.69;5174607;28;20023;-82
2023/05/20 04:24:51;;;;;;;10.52;5.32;;;;;;;13.38;75.83;102193.25;5173824;28;20100;-81
2023/05/20 04:27:25;;;;;;;11.47;4.80;;;;;;;13.28;76.46;102179.72;5156183;28;20494;-81
2023/05/20 04:29:57;;;;;;;8.00;4.97;;;;;;;13.22;76.48;102174.75;5173175;28;20042;-81
2023/05/20 04:32:29;;;;;;;11.03;4.87;;;;;;;13.30;76.68;102186.59;5172518;28;20057;-81
2023/05/20 04:35:07;;;;;;;15.03;5.10;;;;;;;13.37;76.70;102189.75;5180837;28;20404;-82
2023/05/20 04:37:39;;;;;;;12.30;5.27;;;;;;;13.33;77.04;102168.97;5183818;28;20038;-82
2023/05/20 04:40:14;;;;;;;10.53;5.17;;;;;;;13.20;76.59;102156.41;5153746;28;20034;-82
2023/05/20 04:42:58;;;;;;;10.80;5.03;;;;;;;13.62;75.29;102172.75;5166956;28;20098;-82
2023/05/20 04:45:37;;;;;;;8.23;4.45;;;;;;;13.88;74.42;102202.16;5144048;28;20031;-82
2023/05/20 04:48:09;;;;;;;12.17;4.87;;;;;;;13.29;76.63;102147.22;5164391;28;20054;-83
2023/05/20 04:51:10;;;;;;;13.13;5.03;;;;;;;13.93;74.90;102212.44;5174896;28;20031;-83
2023/05/20 04:53:42;;;;;;;10.17;4.57;;;;;;;13.46;76.36;102170.03;5157258;28;20034;-80
2023/05/20 04:56:14;;;;;;;8.87;5.43;;;;;;;13.43;76.82;102168.41;5173173;28;20041;-80
2023/05/20 04:58:45;;;;;;;8.80;5.10;;;;;;;13.50;76.18;102182.13;5172189;28;20497;-82
2023/05/20 05:01:19;;;;;;;17.03;4.90;;;;;;;13.43;77.00;102162.28;5153351;28;20035;-80
2023/05/20 05:03:51;;;;;;;8.38;4.45;;;;;;;13.55;78.09;102179.28;5137453;28;20031;-81
2023/05/20 05:06:22;;;;;;;10.40;4.93;;;;;;;13.60;79.90;102192.19;5151858;28;20434;-82
2023/05/20 05:08:55;;;;;;;9.97;5.20;;;;;;;13.58;78.64;102173.00;5153253;28;20019;-84
2023/05/20 05:11:26;;;;;;;9.37;5.50;;;;;;;13.51;78.39;102165.38;5157785;28;20494;-82
2023/05/20 05:13:58;;;;;;;12.27;5.47;;;;;;;13.73;77.55;102188.00;5180562;28;20043;-82
2023/05/20 05:16:29;;;;;;;13.30;6.07;;;;;;;13.62;78.42;102174.53;5151553;28;20035;-82
2023/05/20 05:19:07;;;;;;;14.80;5.67;;;;;;;13.84;78.78;102205.88;5152415;28;20038;-82
2023/05/20 05:21:38;;;;;;;16.77;5.57;;;;;;;13.42;80.88;102157.97;5167476;28;20054;-82
2023/05/20 05:24:10;;;;;;;8.23;4.80;;;;;;;13.71;80.09;102184.59;5168135;28;20108;-82
2023/05/20 05:26:41;;;;;;;10.03;4.97;;;;;;;13.83;79.11;102195.41;5170798;28;20053;-82
2023/05/20 05:29:12;;;;;;;11.20;4.80;;;;;;;13.82;79.22;102189.31;5172316;28;20088;-82
2023/05/20 05:31:44;;;;;;;8.00;4.50;;;;;;;13.72;79.58;102159.13;5172199;28;20027;-82
2023/05/20 05:34:15;;;;;;;11.33;5.03;;;;;;;13.73;79.18;102172.22;5172400;28;20084;-82
2023/05/20 05:36:47;;;;;;;9.23;5.07;;;;;;;13.84;79.93;102190.06;5171980;28;20537;-82
2023/05/20 05:39:18;;;;;;;12.17;5.10;;;;;;;13.81;78.80;102152.53;5174243;28;20117;-82
2023/05/20 05:41:49;;;;;;;9.47;4.53;;;;;;;13.94;78.57;102172.00;5172038;28;20502;-81
2023/05/20 05:44:21;;;;;;;7.63;4.70;;;;;;;13.98;78.89;102168.28;5172098;28;20023;-81
2023/05/20 05:46:52;;;;;;;10.17;5.30;;;;;;;14.02;78.69;102172.44;5173077;28;20113;-81
2023/05/20 05:49:24;;;;;;;8.27;4.73;;;;;;;13.86;78.20;102142.63;5171767;28;20027;-81
2023/05/20 05:51:55;;;;;;;8.60;4.80;;;;;;;14.19;79.13;102191.75;5172721;28;20031;-81
2023/05/20 05:54:26;;;;;;;6.93;4.33;;;;;;;14.01;77.97;102162.88;5171597;28;20031;-81
2023/05/20 05:56:58;;;;;;;7.47;4.77;;;;;;;14.19;76.98;102173.31;5172234;28;20088;-81
2023/05/20 05:59:29;;;;;;;9.93;4.57;;;;;;;14.17;79.46;102177.84;5172797;28;20031;-80
2023/05/20 06:02:01;;;;;;;7.13;4.97;;;;;;;14.17;77.26;102162.03;5172545;28;20082;-80
2023/05/20 06:04:32;;;;;;;10.67;4.73;;;;;;;14.00;78.47;102141.84;5170826;28;20121;-82
2023/05/20 06:07:04;;;;;;;10.57;4.70;;;;;;;14.09;77.46;102156.31;5172301;28;20031;-82
2023/05/20 06:09:38;;;;;;;12.53;4.60;;;;;;;14.30;78.23;102179.78;5173155;28;20471;-82
2023/05/20 06:12:10;;;;;;;10.17;5.57;;;;;;;14.27;77.25;102168.50;5170770;28;20041;-81
2023/05/20 06:14:41;;;;;;;10.50;3.77;;;;;;;14.36;78.26;102164.53;5170805;28;20054;-82
2023/05/20 06:17:13;;;;;;;11.20;4.40;;;;;;;14.36;76.31;102153.13;5172525;28;20035;-82
2023/05/20 06:19:45;;;;;;;8.93;4.20;;;;;;;14.45;75.54;102146.50;5172074;28;20470;-82
2023/05/20 06:22:16;;;;;;;6.57;3.93;;;;;;;14.47;75.56;102145.44;5172829;28;20053;-82
2023/05/20 06:24:48;;;;;;;11.60;4.83;;;;;;;14.42;75.49;102129.03;5171714;28;20076;-82
2023/05/20 06:27:19;;;;;;;7.43;4.53;;;;;;;14.64;75.54;102148.94;5170579;28;20027;-81
2023/05/20 06:29:52;;;;;;;8.10;5.17;;;;;;;14.76;74.87;102153.53;5171771;28;20425;-81
2023/05/20 06:32:23;;;;;;;7.70;4.67;;;;;;;14.83;73.90;102156.69;5171748;28;20039;-81
2023/05/20 06:34:54;;;;;;;8.73;4.63;;;;;;;14.76;74.99;102129.78;5156060;28;20563;-81
2023/05/20 06:37:26;;;;;;;9.50;4.53;;;;;;;15.03;74.71;102143.28;5173038;28;20449;-81
2023/05/20 06:39:57;;;;;;;10.63;4.67;;;;;;;14.87;75.31;102117.81;5173052;28;20471;-81
2023/05/20 06:42:28;;;;;;;7.50;4.07;;;;;;;14.98;73.89;102110.09;5171448;28;20034;-81
2023/05/20 06:45:00;;;;;;;7.73;4.70;;;;;;;15.33;72.71;102153.81;5172264;28;20027;-80
2023/05/20 06:47:31;;;;;;;9.50;4.53;;;;;;;15.24;71.97;102122.69;5171987;28;20065;-80
2023/05/20 06:50:03;;;;;;;12.90;4.03;;;;;;;15.51;71.18;102140.47;5171408;28;20124;-80
2023/05/20 06:52:34;;;;;;;8.90;4.10;;;;;;;15.77;68.85;102129.25;5171410;28;20058;-80
2023/05/20 06:55:08;;;;;;;6.70;4.20;;;;;;;15.92;68.47;102132.72;5171306;28;20083;-80
2023/05/20 06:57:39;;;;;;;7.85;4.22;;;;;;;15.98;67.52;102111.22;5171706;28;20558;-80
2023/05/20 07:00:12;;;;;;;6.23;4.07;;;;;;;16.31;65.83;102125.91;5171803;28;20019;-80
2023/05/20 07:02:44;;;;;;;11.87;3.83;;;;;;;16.59;64.48;102125.91;5169579;28;20029;-80
2023/05/20 07:05:16;;;;;;;7.07;3.67;;;;;;;16.84;62.56;102112.88;5161948;28;20077;-80
2023/05/20 07:07:47;;;;;;;9.83;3.73;;;;;;;17.13;60.39;102104.78;5150615;28;20043;-79
2023/05/20 07:10:19;;;;;;;3.93;3.10;;;;;;;17.61;57.91;102120.03;5153597;28;20102;-79
2023/05/20 07:12:50;;;;;;;4.60;3.20;;;;;;;18.29;56.01;102145.41;5170000;28;20054;-80
2023/05/20 07:15:21;;;;;;;5.93;3.40;;;;;;;18.14;54.29;102108.44;5171172;28;20771;-80
2023/05/20 07:17:53;;;;;;;6.10;2.90;;;;;;;18.59;53.05;102098.16;5169858;28;20022;-80
2023/05/20 07:20:24;;;;;;;4.10;3.17;;;;;;;18.81;50.68;102105.38;5171537;28;20213;-80
2023/05/20 07:22:56;;;;;;;6.37;3.40;;;;;;;19.46;48.46;102122.66;5171273;28;20597;-80
2023/05/20 07:25:27;;;;;;;8.33;3.40;;;;;;;19.80;47.27;102098.75;5171537;28;20035;-80
2023/05/20 07:27:59;;;;;;;6.60;2.93;;;;;;;20.79;44.71;102097.00;5169805;28;20474;-80
2023/05/20 07:30:30;;;;;;;10.77;2.97;;;;;;;21.22;44.13;102106.84;5171800;28;20027;-80
2023/05/20 07:33:02;;;;;;;10.33;3.17;;;;;;;21.71;42.19;102085.69;5159021;28;20024;-80
2023/05/20 07:35:33;;;;;;;3.73;2.83;;;;;;;22.04;42.37;102109.56;5153984;29;20027;-80
2023/05/20 07:38:04;;;;;;;7.67;3.03;;;;;;;22.61;40.52;102113.38;5155242;29;20031;-80
2023/05/20 07:40:37;;;;;;;7.40;3.03;;;;;;;22.77;39.22;102074.59;5154255;28;20061;-80
2023/05/20 07:43:09;;;;;;;7.78;3.40;;;;;;;23.21;38.39;102077.56;5154187;28;20130;-80
2023/05/20 07:45:41;;;;;;;8.43;3.90;;;;;;;23.74;37.94;102089.63;5158014;28;20488;-82
2023/05/20 07:48:13;;;;;;;8.90;3.05;;;;;;;24.22;36.81;102121.59;5174839;28;20038;-81
2023/05/20 07:50:44;;;;;;;4.53;2.40;;;;;;;24.52;36.01;102106.13;5173822;28;20027;-81
2023/05/20 07:53:16;;;;;;;7.82;3.10;;;;;;;24.73;35.49;102078.19;5138169;28;20030;-81
2023/05/20 07:55:47;;;;;;;6.65;2.35;;;;;;;24.82;34.79;102079.91;5153111;28;20025;-80
2023/05/20 07:58:18;;;;;;;6.63;2.60;;;;;;;25.35;33.87;102074.53;5173147;28;20031;-80
2023/05/20 08:00:50;;;;;;;5.22;2.88;;;;;;;25.88;33.69;102118.31;5173948;28;20031;-80
2023/05/20 08:03:22;;;;;;;11.43;2.80;;;;;;;25.94;32.12;102075.56;5174463;28;20022;-81
2023/05/20 08:05:53;;;;;;;8.88;2.67;;;;;;;26.26;32.75;102066.88;5156943;28;20048;-81
2023/05/20 08:08:25;;;;;;;7.90;2.97;;;;;;;26.60;31.64;102108.03;5173877;28;20102;-81
2023/05/20 08:10:57;;;;;;;4.50;2.75;;;;;;;26.47;31.38;102077.16;5173129;28;20494;-81
2023/05/20 08:13:46;;;;;;;8.45;2.70;;;;;;;27.71;31.92;102096.69;5162531;28;20046;-81
2023/05/20 08:16:17;;;;;;;9.27;3.35;;;;;;;26.95;30.50;102092.53;5174271;28;20026;-81
2023/05/20 08:18:49;;;;;;;8.48;2.75;;;;;;;27.36;30.52;102074.63;5174301;28;20038;-81
2023/05/20 08:21:23;;;;;;;7.93;3.22;;;;;;;27.09;29.66;102074.06;5173669;28;20019;-83
2023/05/20 08:23:54;;;;;;;4.78;2.50;;;;;;;27.42;29.86;102082.00;5169549;28;20019;-80
2023/05/20 08:26:26;;;;;;;8.15;2.55;;;;;;;27.69;29.56;102077.16;5152373;28;20037;-80
2023/05/20 08:28:57;;;;;;;8.40;2.95;;;;;;;28.12;28.08;102100.13;5152727;28;20483;-82
2023/05/20 08:31:29;;;;;;;5.30;2.67;;;;;;;28.19;28.86;102087.59;5154067;28;20031;-83
2023/05/20 08:34:00;;;;;;;5.13;2.47;;;;;;;28.47;28.66;102078.16;5136685;28;20549;-82
2023/05/20 08:36:32;;;;;;;8.18;3.00;;;;;;;28.55;27.38;102067.31;5153322;28;20045;-84
2023/05/20 08:39:03;;;;;;;7.78;2.30;;;;;;;28.91;26.71;102083.78;5139443;28;20019;-85
2023/05/20 08:41:37;;;;;;;6.78;2.38;;;;;;;28.29;27.21;102068.53;5163493;28;20479;-87
2023/05/20 08:44:10;;;;;;;7.70;2.50;;;;;;;28.67;27.58;102080.31;5171691;28;20030;-83
2023/05/20 08:46:42;;;;;;;7.25;2.65;;;;;;;28.41;27.58;102085.13;5173118;28;20101;-85
2023/05/20 08:49:14;;;;;;;6.43;2.47;;;;;;;28.25;27.51;102057.28;5173533;28;20439;-84
2023/05/20 08:51:46;;;;;;;10.80;2.55;;;;;;;29.02;27.30;102055.56;5173130;28;20058;-85
2023/05/20 08:54:20;;;;;;;5.72;2.67;;;;;;;28.29;27.21;102051.53;5157181;28;20022;-84
2023/05/20 08:56:52;;;;;;;5.00;2.70;;;;;;;28.94;26.45;102043.00;5155151;28;20041;-84
2023/05/20 08:59:24;;;;;;;6.83;3.07;;;;;;;29.49;26.68;102071.47;5173494;28;20518;-84
2023/05/20 09:01:55;;;;;;;4.57;2.90;;;;;;;29.21;26.07;102081.97;5155212;28;20106;-85
2023/05/20 09:04:27;;;;;;;8.52;2.85;;;;;;;29.42;26.66;102058.75;5153858;29;20834;-84
2023/05/20 09:06:58;;;;;;;5.93;2.90;;;;;;;29.73;25.18;102046.03;5152506;29;20027;-84
2023/05/20 09:09:32;;;;;;;5.13;2.83;;;;;;;29.55;25.76;102039.19;5152831;29;20030;-85
2023/05/20 09:12:04;;;;;;;5.43;2.10;;;;;;;29.67;25.36;102036.84;5152677;29;20371;-84
2023/05/20 09:14:35;;;;;;;5.20;2.45;;;;;;;29.88;25.42;102043.31;5156789;28;20057;-82
2023/05/20 09:17:07;;;;;;;6.72;1.98;;;;;;;30.55;25.24;102064.63;5171679;28;20061;-82
2023/05/20 09:19:47;;;;;;;8.65;2.40;;;;;;;30.32;25.00;102048.66;5165551;28;20406;-82
2023/05/20 09:22:30;;;;;;;3.33;1.83;;;;;;;31.02;24.13;102026.25;5170764;28;20034;-81
2023/05/20 09:25:05;;;;;;;;;;;;;;;32.74;23.87;102078.59;5173727;28;20110;-83
2023/05/20 09:27:36;;;;;;;2.67;1.70;;;;;;;30.77;24.16;102069.16;5152226;28;19910;-82
2023/05/20 09:30:12;;;;;;;8.63;2.17;;;;;;;30.59;23.87;102026.41;5171977;28;20033;-82
2023/05/20 09:32:44;;;;;;;7.70;1.92;;;;;;;30.74;23.80;102015.47;5153438;28;20023;-81
2023/05/20 09:35:16;;;;;;;9.40;2.00;;;;;;;31.32;23.75;102008.88;5168238;28;20045;-81
2023/05/20 09:37:53;;;;;;;5.68;2.03;;;;;;;31.62;23.48;102018.53;5151563;28;20078;-80
2023/05/20 09:40:29;;;;;;;5.43;2.28;;;;;;;31.79;22.55;102029.81;5169994;28;20085;-81
2023/05/20 09:43:10;;;;;;;13.90;2.13;;;;;;;32.01;23.37;102064.88;5153642;28;20034;-84
2023/05/20 09:46:35;;;;;;;6.40;2.13;;;;;;;31.95;24.11;102071.06;5176838;28;20379;-85
2023/05/20 09:49:07;;;;;;;3.45;2.05;;;;;;;30.80;23.26;102039.00;5172970;28;20031;-83
2023/05/20 09:51:40;;;;;;;6.35;2.00;;;;;;;30.66;24.59;102032.69;5172931;28;20053;-82
2023/05/20 09:54:12;;;;;;;5.82;2.30;;;;;;;29.64;25.26;102033.72;5171152;28;20051;-82
2023/05/20 09:56:45;;;;;;;4.88;2.83;;;;;;;29.44;25.81;102037.84;5140865;28;20058;-83
2023/05/20 09:59:20;;;;;;;8.27;2.00;;;;;;;29.84;25.86;102015.00;5190743;28;20109;-83
2023/05/20 10:01:51;;;;;;;4.93;1.92;;;;;;;29.24;25.93;102021.38;5154256;28;20466;-81
2023/05/20 10:04:25;;;;;;;7.05;2.58;;;;;;;28.95;26.66;102036.56;5143070;28;20035;-82
2023/05/20 10:07:08;;;;;;;;;;;;;;;30.56;25.67;102051.97;5135424;28;20027;-83
2023/05/20 10:10:06;;;;;;;6.10;2.92;;;;;;;29.33;26.65;102052.63;5172685;28;19945;-83
2023/05/20 10:13:00;;;;;;;6.28;2.78;;;;;;;28.65;27.32;102026.63;5170802;28;20055;-84
2023/05/20 10:16:12;;;;;;;3.13;2.28;;;;;;;29.07;27.01;102050.44;5171043;28;20026;-82
2023/05/20 10:19:02;;;;;;;6.35;2.33;;;;;;;28.56;27.52;102017.78;5154460;28;20046;-82
2023/05/20 10:21:34;;;;;;;4.70;2.35;;;;;;;27.80;28.27;102032.03;5167179;28;20074;-89
2023/05/20 10:24:09;;;;;;;3.00;2.38;;;;;;;27.82;28.29;101997.72;5135906;29;20042;-83
2023/05/20 10:26:41;;;;;;;6.20;2.13;;;;;;;27.93;27.85;102005.34;5133929;29;20391;-83
2023/05/20 10:29:19;;;;;;;5.00;2.20;;;;;;;28.26;28.18;102029.31;5158838;28;20030;-84
2023/05/20 10:31:51;;;;;;;3.97;2.28;;;;;;;27.42;28.49;102009.38;5155068;28;20042;-84
2023/05/20 10:34:23;;;;;;;3.45;2.20;;;;;;;27.96;27.46;101993.41;5162806;28;20027;-84
2023/05/20 10:36:54;;;;;;;6.60;1.77;;;;;;;27.62;28.29;102025.06;5135218;29;20411;-84
2023/05/20 10:39:34;;;;;;;5.18;1.95;;;;;;;28.45;27.98;101992.13;5158501;28;20532;-84
2023/05/20 10:42:06;;;;;;;68.07;6.90;;;;;;;28.17;28.44;102008.03;5151936;28;20076;-90
2023/05/20 10:44:44;;;;;;;9.27;2.30;;;;;;;28.37;28.40;102005.69;5153509;28;20129;-89
2023/05/20 10:47:17;;;;;;;5.55;2.30;;;;;;;28.13;28.05;102002.16;5204763;28;21366;-89
2023/05/20 10:49:48;;;;;;;4.17;1.93;;;;;;;28.35;27.88;102002.31;5207357;28;20037;-85
2023/05/20 10:52:20;;;;;;;4.18;1.90;;;;;;;28.01;27.51;101967.59;5230615;28;20149;-86
2023/05/20 10:54:56;;;;;;;5.22;2.33;;;;;;;28.33;28.29;101983.63;5198635;28;20024;-86
2023/05/20 10:57:31;;;;;;;7.88;2.13;;;;;;;28.16;28.55;101980.25;5198630;28;20034;-84
2023/05/20 11:00:03;;;;;;;9.43;2.05;;;;;;;27.90;28.12;101976.09;5213682;28;20501;-83
2023/05/20 11:02:35;;;;;;;6.57;2.10;;;;;;;27.27;28.55;101950.13;5219844;28;20040;-88
2023/05/20 11:05:10;;;;;;;8.05;2.33;;;;;;;27.45;28.84;101998.25;5225989;28;20033;-87
2023/05/20 11:07:42;;;;;;;5.03;1.90;;;;;;;27.77;29.04;101969.47;5208635;28;20403;-87
2023/05/20 11:10:13;;;;;;;4.72;1.80;;;;;;;27.96;28.91;101951.16;5226756;28;20035;-88
2023/05/20 11:12:48;;;;;;;3.75;2.05;;;;;;;28.19;28.45;101981.75;5209592;28;20055;-86
2023/05/20 11:15:22;;;;;;;6.30;3.17;;;;;;;27.50;29.60;101957.38;5241795;28;20019;-86
2023/05/20 11:17:54;;;;;;;6.57;2.65;;;;;;;27.42;28.60;101929.50;5232092;28;20499;-86
2023/05/20 11:20:26;;;;;;;5.72;2.90;;;;;;;27.65;29.13;101928.66;5238486;28;20050;-86
2023/05/20 11:22:59;;;;;;;3.30;2.03;;;;;;;27.94;29.58;101942.44;5230662;28;21374;-88
2023/05/20 11:25:32;;;;;;;6.28;2.53;;;;;;;28.08;29.00;101942.66;5232333;28;20043;-88
2023/05/20 11:28:03;;;;;;;6.63;1.92;;;;;;;28.21;28.65;101979.69;5207392;28;20038;-88
2023/05/20 11:30:36;;;;;;;5.10;2.03;;;;;;;28.12;27.84;101943.97;5180791;28;20111;-85
2023/05/20 11:33:11;;;;;;;6.32;2.15;;;;;;;27.89;28.06;101909.84;5245274;28;20035;-84
2023/05/20 11:35:51;;;;;;;9.35;1.80;;;;;;;28.57;28.73;101925.16;5220195;28;20032;-88
2023/05/20 11:38:23;;;;;;;8.75;2.95;;;;;;;28.46;28.94;101950.72;5204526;28;20035;-89
2023/05/20 11:40:55;;;;;;;6.53;2.13;;;;;;;28.09;28.86;101945.16;5239969;28;20106;-81
2023/05/20 11:43:26;;;;;;;3.63;1.90;;;;;;;28.58;28.45;101963.69;5228197;28;20033;-87
2023/05/20 11:45:58;;;;;;;3.33;1.75;;;;;;;27.84;28.14;101925.72;5225052;28;20060;-87
2023/05/20 11:48:40;;;;;;;4.35;2.03;;;;;;;28.17;29.20;101936.19;5210064;28;20096;-88
2023/05/20 11:51:14;;;;;;;4.75;2.10;;;;;;;27.92;29.11;101946.31;5214549;28;20016;-86
2023/05/20 11:53:46;;;;;;;2.35;1.70;;;;;;;27.99;29.55;101958.88;5228219;28;20623;-88